createdAt,value
2018-10-16T00:01:41.972Z,9.30
2018-10-16T00:04:10.636Z,9.30
2018-10-16T00:06:39.192Z,9.20
2018-10-16T00:09:09.536Z,9.20
2018-10-16T00:11:42.692Z,9.20
2018-10-16T00:14:11.231Z,9.10
2018-10-16T00:16:39.817Z,9.20
2018-10-16T00:19:08.465Z,9.20
2018-10-16T00:21:36.774Z,9.10
2018-10-16T00:24:05.904Z,9.00
2018-10-16T00:26:34.488Z,8.90
2018-10-16T00:29:02.780Z,9.00
2018-10-16T00:31:31.396Z,9.00
2018-10-16T00:33:59.746Z,9.00
2018-10-16T00:36:28.035Z,9.00
2018-10-16T00:38:56.543Z,8.90
2018-10-16T00:41:24.889Z,8.90
2018-10-16T00:43:53.172Z,8.80
2018-10-16T00:46:21.984Z,8.80
2018-10-16T00:48:50.404Z,8.80
2018-10-16T00:51:19.226Z,8.80
2018-10-16T00:53:47.783Z,8.80
2018-10-16T00:56:16.118Z,8.80
2018-10-16T00:58:44.413Z,8.90
2018-10-16T01:01:12.881Z,8.90
2018-10-16T01:03:41.185Z,8.80
2018-10-16T01:06:09.606Z,8.80
2018-10-16T01:08:38.184Z,8.80
2018-10-16T01:11:10.607Z,8.80
2018-10-16T01:13:39.292Z,8.80
2018-10-16T01:16:07.984Z,8.80
2018-10-16T01:18:36.584Z,8.80
2018-10-16T01:21:05.561Z,8.80
2018-10-16T01:23:34.154Z,8.80
2018-10-16T01:26:02.509Z,8.80
2018-10-16T01:28:30.819Z,8.80
2018-10-16T01:30:59.141Z,8.80
2018-10-16T01:33:28.119Z,8.70
2018-10-16T01:35:56.735Z,8.70
2018-10-16T01:38:25.059Z,8.70
2018-10-16T01:40:53.816Z,8.60
2018-10-16T01:43:22.435Z,8.60
2018-10-16T01:45:50.738Z,8.60
2018-10-16T01:48:19.399Z,8.60
2018-10-16T01:50:48.185Z,8.60
2018-10-16T01:53:16.531Z,8.60
2018-10-16T01:55:44.948Z,8.60
2018-10-16T01:58:13.442Z,8.60
2018-10-16T02:00:41.952Z,8.60
2018-10-16T02:03:10.834Z,8.60
2018-10-16T02:05:39.137Z,8.60
2018-10-16T02:08:08.620Z,8.60
2018-10-16T02:10:37.936Z,8.60
2018-10-16T02:13:06.622Z,8.50
2018-10-16T02:15:35.197Z,8.40
2018-10-16T02:18:03.504Z,8.40
2018-10-16T02:20:31.816Z,8.40
2018-10-16T02:23:00.345Z,8.40
2018-10-16T02:25:28.659Z,8.40
2018-10-16T02:27:57.268Z,8.40
2018-10-16T02:30:26.089Z,8.30
2018-10-16T02:32:54.682Z,8.30
2018-10-16T02:35:23.318Z,8.20
2018-10-16T02:37:51.894Z,8.20
2018-10-16T02:40:20.346Z,8.20
2018-10-16T02:42:48.642Z,8.20
2018-10-16T02:45:16.974Z,8.10
2018-10-16T02:47:45.276Z,8.10
2018-10-16T02:50:13.580Z,8.10
2018-10-16T02:52:41.864Z,8.10
2018-10-16T02:55:11.607Z,8.10
2018-10-16T02:57:40.581Z,8.10
2018-10-16T03:00:09.055Z,8.10
2018-10-16T03:02:37.976Z,8.10
2018-10-16T03:05:06.800Z,8.10
2018-10-16T03:07:35.280Z,8.10
2018-10-16T03:10:04.024Z,8.00
2018-10-16T03:12:32.937Z,8.10
2018-10-16T03:15:01.421Z,8.00
2018-10-16T03:17:29.986Z,8.00
2018-10-16T03:19:58.288Z,7.90
2018-10-16T03:22:26.827Z,8.00
2018-10-16T03:24:55.179Z,7.90
2018-10-16T03:27:23.748Z,7.90
2018-10-16T03:29:52.396Z,7.90
2018-10-16T03:32:20.746Z,7.90
2018-10-16T03:34:49.535Z,7.80
2018-10-16T03:37:17.986Z,7.80
2018-10-16T03:39:46.299Z,7.70
2018-10-16T03:42:15.088Z,7.70
2018-10-16T03:44:43.380Z,7.70
2018-10-16T03:47:12.523Z,7.80
2018-10-16T03:49:41.730Z,7.70
2018-10-16T03:52:10.369Z,7.70
2018-10-16T03:54:38.734Z,7.70
2018-10-16T03:57:07.336Z,7.70
2018-10-16T03:59:35.783Z,7.60
2018-10-16T04:02:04.663Z,7.60
2018-10-16T04:04:33.246Z,7.60
2018-10-16T04:07:01.557Z,7.60
2018-10-16T04:09:30.497Z,7.60
2018-10-16T04:11:59.253Z,7.50
2018-10-16T04:14:27.822Z,7.50
2018-10-16T04:16:56.116Z,7.50
2018-10-16T04:19:24.384Z,7.50
2018-10-16T04:21:52.894Z,7.50
2018-10-16T04:24:21.178Z,7.60
2018-10-16T04:26:49.608Z,7.50
2018-10-16T04:29:18.144Z,7.50
2018-10-16T04:31:46.886Z,7.50
2018-10-16T04:34:15.478Z,7.40
2018-10-16T04:36:43.907Z,7.40
2018-10-16T04:39:14.128Z,7.40
2018-10-16T04:41:43.098Z,7.40
2018-10-16T04:44:11.533Z,7.40
2018-10-16T04:46:39.867Z,7.40
2018-10-16T04:49:08.466Z,7.40
2018-10-16T04:51:36.728Z,7.40
2018-10-16T04:54:05.304Z,7.30
2018-10-16T04:56:33.900Z,7.30
2018-10-16T04:59:02.159Z,7.30
2018-10-16T05:01:30.702Z,7.30
2018-10-16T05:03:59.022Z,7.30
2018-10-16T05:06:27.995Z,7.30
2018-10-16T05:08:56.462Z,7.20
2018-10-16T05:11:24.829Z,7.20
2018-10-16T05:13:53.371Z,7.20
2018-10-16T05:16:21.681Z,7.20
2018-10-16T05:18:50.044Z,7.10
2018-10-16T05:21:18.525Z,7.10
2018-10-16T05:23:47.054Z,7.10
2018-10-16T05:26:15.320Z,7.10
2018-10-16T05:28:43.858Z,7.10
2018-10-16T05:31:12.835Z,7.10
2018-10-16T05:33:41.482Z,7.10
2018-10-16T05:36:09.978Z,7.10
2018-10-16T05:38:38.293Z,7.10
2018-10-16T05:41:07.085Z,7.00
2018-10-16T05:43:35.628Z,7.00
2018-10-16T05:46:03.963Z,7.10
2018-10-16T05:48:32.522Z,7.00
2018-10-16T05:51:01.124Z,7.10
2018-10-16T05:53:29.405Z,7.10
2018-10-16T05:56:00.945Z,7.10
2018-10-16T05:58:29.279Z,7.20
2018-10-16T06:00:57.837Z,7.20
2018-10-16T06:03:26.325Z,7.20
2018-10-16T06:05:54.824Z,7.20
2018-10-16T06:08:23.088Z,7.30
2018-10-16T06:10:51.484Z,7.30
2018-10-16T06:13:20.197Z,7.30
2018-10-16T06:15:48.833Z,7.40
2018-10-16T06:18:17.299Z,7.40
2018-10-16T06:20:47.068Z,7.40
2018-10-16T06:23:15.684Z,7.50
2018-10-16T06:25:44.048Z,7.60
2018-10-16T06:28:22.992Z,7.80
2018-10-16T06:30:51.855Z,7.90
2018-10-16T06:33:26.473Z,7.90
2018-10-16T06:35:55.184Z,8.10
2018-10-16T06:38:23.777Z,8.20
2018-10-16T06:40:52.467Z,8.30
2018-10-16T06:43:21.239Z,8.40
2018-10-16T06:45:49.503Z,8.50
2018-10-16T06:48:18.753Z,8.60
2018-10-16T06:50:47.176Z,8.80
2018-10-16T06:53:16.101Z,8.90
2018-10-16T06:55:45.072Z,9.10
2018-10-16T06:58:13.373Z,9.20
2018-10-16T07:00:41.637Z,9.40
2018-10-16T07:03:09.959Z,9.60
2018-10-16T07:05:38.500Z,9.90
2018-10-16T07:08:06.968Z,10.80
2018-10-16T07:10:35.260Z,11.90
2018-10-16T07:13:03.885Z,12.90
2018-10-16T07:15:32.525Z,13.80
2018-10-16T07:18:00.845Z,14.50
2018-10-16T07:20:29.147Z,15.10
2018-10-16T07:22:57.692Z,15.70
2018-10-16T07:25:25.984Z,16.20
2018-10-16T07:27:54.693Z,16.70
2018-10-16T07:30:23.179Z,16.70
2018-10-16T07:32:51.591Z,17.20
2018-10-16T07:35:20.083Z,17.70
2018-10-16T07:37:48.457Z,18.10
2018-10-16T07:40:17.500Z,18.40
2018-10-16T07:42:45.820Z,18.80
2018-10-16T07:45:14.290Z,19.30
2018-10-16T07:47:42.981Z,19.50
2018-10-16T07:50:12.101Z,19.70
2018-10-16T07:52:40.708Z,19.80
2018-10-16T07:55:12.093Z,20.00
2018-10-16T07:57:41.044Z,20.20
2018-10-16T08:00:10.737Z,20.60
2018-10-16T08:02:39.755Z,20.90
2018-10-16T08:05:09.130Z,21.20
2018-10-16T08:07:37.955Z,21.40
2018-10-16T08:10:08.300Z,21.50
2018-10-16T08:12:36.680Z,22.00
2018-10-16T08:15:06.433Z,21.90
2018-10-16T08:17:35.361Z,21.90
2018-10-16T08:20:03.839Z,22.20
2018-10-16T08:22:32.200Z,22.60
2018-10-16T08:25:00.620Z,23.00
2018-10-16T08:27:28.999Z,23.20
2018-10-16T08:29:57.636Z,23.10
2018-10-16T08:32:26.238Z,22.80
2018-10-16T08:34:54.689Z,22.30
2018-10-16T08:37:32.044Z,22.00
2018-10-16T08:40:01.320Z,21.60
2018-10-16T08:42:44.174Z,21.30
2018-10-16T08:45:23.870Z,20.80
2018-10-16T08:48:03.728Z,20.90
2018-10-16T08:50:44.936Z,21.40
2018-10-16T08:53:13.620Z,21.60
2018-10-16T08:55:42.187Z,22.10
2018-10-16T08:58:10.444Z,23.00
2018-10-16T09:00:39.122Z,23.40
2018-10-16T09:03:07.773Z,24.00
2018-10-16T09:05:36.048Z,24.60
2018-10-16T09:08:04.731Z,24.90
2018-10-16T09:10:33.021Z,25.40
2018-10-16T09:13:01.745Z,25.70
2018-10-16T09:15:30.214Z,25.80
2018-10-16T09:17:58.637Z,26.30
2018-10-16T09:20:26.922Z,26.40
2018-10-16T09:22:55.208Z,26.90
2018-10-16T09:25:23.883Z,27.20
2018-10-16T09:27:52.441Z,27.30
2018-10-16T09:30:20.792Z,27.20
2018-10-16T09:32:49.372Z,27.00
2018-10-16T09:35:17.672Z,27.40
2018-10-16T09:37:46.146Z,27.70
2018-10-16T09:40:14.839Z,28.00
2018-10-16T09:42:43.119Z,28.30
2018-10-16T09:45:11.773Z,28.00
2018-10-16T09:47:40.952Z,28.20
2018-10-16T09:50:10.280Z,28.70
2018-10-16T09:52:39.213Z,29.00
2018-10-16T09:55:09.355Z,28.80
2018-10-16T09:57:38.055Z,29.10
2018-10-16T10:00:13.085Z,29.10
2018-10-16T10:02:41.491Z,29.30
2018-10-16T10:05:09.934Z,28.40
2018-10-16T10:07:38.299Z,28.80
2018-10-16T10:10:06.820Z,28.00
2018-10-16T10:12:35.365Z,27.80
2018-10-16T10:15:04.073Z,27.30
2018-10-16T10:17:32.333Z,26.10
2018-10-16T10:20:00.623Z,25.90
2018-10-16T10:22:28.909Z,25.20
2018-10-16T10:24:57.543Z,25.00
2018-10-16T10:27:26.516Z,25.20
2018-10-16T10:29:55.162Z,25.30
2018-10-16T10:32:23.580Z,25.20
2018-10-16T10:34:51.868Z,25.20
2018-10-16T10:37:20.408Z,25.20
2018-10-16T10:39:48.688Z,25.20
2018-10-16T10:42:17.749Z,25.50
2018-10-16T10:44:46.435Z,25.40
2018-10-16T10:47:14.845Z,25.50
2018-10-16T10:49:43.149Z,25.50
2018-10-16T10:52:11.428Z,25.30
2018-10-16T10:54:40.284Z,25.00
2018-10-16T10:57:09.023Z,24.70
2018-10-16T10:59:37.372Z,24.80
2018-10-16T11:02:06.014Z,25.30
2018-10-16T11:04:34.568Z,25.20
2018-10-16T11:07:03.233Z,25.30
2018-10-16T11:09:31.731Z,25.40
2018-10-16T11:12:00.348Z,25.50
2018-10-16T11:14:28.942Z,25.50
2018-10-16T11:16:57.217Z,25.40
2018-10-16T11:19:25.591Z,26.40
2018-10-16T11:21:54.092Z,27.50
2018-10-16T11:24:22.385Z,28.50
2018-10-16T11:26:50.697Z,29.10
2018-10-16T11:29:19.135Z,29.60
2018-10-16T11:31:47.796Z,29.70
2018-10-16T11:34:16.410Z,29.10
2018-10-16T11:36:44.995Z,27.30
2018-10-16T11:39:13.672Z,26.10
2018-10-16T11:41:42.075Z,25.30
2018-10-16T11:44:11.999Z,25.10
2018-10-16T11:46:42.224Z,24.70
2018-10-16T11:49:11.176Z,24.70
2018-10-16T11:51:39.471Z,26.30
2018-10-16T11:54:08.389Z,27.70
2018-10-16T11:56:37.877Z,28.70
2018-10-16T11:59:07.024Z,29.10
2018-10-16T12:01:35.324Z,29.40
2018-10-16T12:04:04.072Z,29.40
2018-10-16T12:06:32.998Z,28.50
2018-10-16T12:09:01.560Z,27.30
2018-10-16T12:11:31.183Z,26.10
2018-10-16T12:13:59.798Z,25.50
2018-10-16T12:16:31.568Z,24.50
2018-10-16T12:19:09.743Z,24.00
2018-10-16T12:21:38.182Z,23.70
2018-10-16T12:24:06.636Z,23.40
2018-10-16T12:26:35.473Z,23.50
2018-10-16T12:29:04.210Z,23.30
2018-10-16T12:31:32.652Z,23.00
2018-10-16T12:34:01.108Z,22.90
2018-10-16T12:36:29.460Z,22.80
2018-10-16T12:38:58.052Z,22.60
2018-10-16T12:41:26.524Z,22.60
2018-10-16T12:43:54.926Z,22.50
2018-10-16T12:46:23.911Z,22.30
2018-10-16T12:48:52.190Z,22.00
2018-10-16T12:51:20.728Z,21.70
2018-10-16T12:53:49.283Z,21.60
2018-10-16T12:56:17.640Z,21.50
2018-10-16T12:58:46.087Z,21.30
2018-10-16T13:01:14.838Z,21.30
2018-10-16T13:03:43.498Z,21.30
2018-10-16T13:06:12.047Z,21.20
2018-10-16T13:08:40.362Z,21.20
2018-10-16T13:11:08.722Z,21.10
2018-10-16T13:13:37.708Z,21.10
2018-10-16T13:16:06.586Z,21.00
2018-10-16T13:18:35.279Z,21.00
2018-10-16T13:21:03.839Z,21.00
2018-10-16T13:23:32.213Z,20.70
2018-10-16T13:26:00.702Z,20.70
2018-10-16T13:28:29.361Z,20.70
2018-10-16T13:30:57.808Z,20.60
2018-10-16T13:33:26.278Z,20.60
2018-10-16T13:35:54.817Z,20.60
2018-10-16T13:38:23.359Z,20.50
2018-10-16T13:40:51.671Z,20.50
2018-10-16T13:43:19.973Z,20.40
2018-10-16T13:45:48.253Z,20.40
2018-10-16T13:48:16.848Z,20.60
2018-10-16T13:50:45.112Z,20.60
2018-10-16T13:53:13.860Z,20.50
2018-10-16T13:55:42.217Z,20.40
2018-10-16T13:58:10.864Z,20.40
2018-10-16T14:00:39.331Z,20.40
2018-10-16T14:03:07.633Z,20.30
2018-10-16T14:05:36.012Z,20.30
2018-10-16T14:08:04.305Z,20.20
2018-10-16T14:10:32.916Z,20.20
2018-10-16T14:13:01.180Z,20.30
2018-10-16T14:15:29.790Z,20.20
2018-10-16T14:17:58.189Z,20.20
2018-10-16T14:20:26.799Z,20.20
2018-10-16T14:22:55.059Z,20.10
2018-10-16T14:25:23.616Z,20.10
2018-10-16T14:27:52.590Z,20.00
2018-10-16T14:30:21.284Z,19.90
2018-10-16T14:32:50.025Z,19.90
2018-10-16T14:35:18.311Z,19.80
2018-10-16T14:37:46.619Z,19.80
2018-10-16T14:40:16.235Z,20.00
2018-10-16T14:42:44.813Z,19.70
2018-10-16T14:45:13.813Z,19.70
2018-10-16T14:47:42.663Z,19.70
2018-10-16T14:50:12.159Z,19.60
2018-10-16T14:52:40.565Z,19.50
2018-10-16T14:55:09.006Z,19.40
2018-10-16T14:57:37.738Z,19.40
2018-10-16T15:00:08.493Z,19.20
2018-10-16T15:02:36.790Z,19.10
2018-10-16T15:05:06.469Z,19.10
2018-10-16T15:07:34.895Z,19.00
2018-10-16T15:10:04.026Z,18.90
2018-10-16T15:12:33.409Z,18.90
2018-10-16T15:15:02.917Z,18.80
2018-10-16T15:17:31.704Z,18.70
2018-10-16T15:20:00.523Z,18.70
2018-10-16T15:22:29.279Z,18.60
2018-10-16T15:24:57.843Z,18.50
2018-10-16T15:27:27.808Z,18.60
2018-10-16T15:29:56.125Z,18.70
2018-10-16T15:32:24.471Z,18.50
2018-10-16T15:34:53.027Z,18.50
2018-10-16T15:37:21.621Z,18.40
2018-10-16T15:39:50.136Z,18.40
2018-10-16T15:42:18.638Z,18.30
2018-10-16T15:44:47.180Z,18.20
2018-10-16T15:47:15.784Z,18.20
2018-10-16T15:49:44.042Z,18.20
2018-10-16T15:52:12.467Z,18.10
2018-10-16T15:54:40.928Z,18.00
2018-10-16T15:57:09.231Z,17.90
2018-10-16T15:59:37.728Z,17.90
2018-10-16T16:02:06.587Z,17.80
2018-10-16T16:04:35.017Z,17.70
2018-10-16T16:07:03.360Z,17.60
2018-10-16T16:09:31.917Z,17.40
2018-10-16T16:12:00.316Z,17.40
2018-10-16T16:14:28.896Z,17.20
2018-10-16T16:16:57.792Z,17.10
2018-10-16T16:19:27.072Z,17.00
2018-10-16T16:21:55.388Z,16.90
2018-10-16T16:24:24.187Z,16.80
2018-10-16T16:26:52.497Z,16.80
2018-10-16T16:29:20.987Z,16.80
2018-10-16T16:31:49.304Z,16.70
2018-10-16T16:34:17.917Z,16.70
2018-10-16T16:36:46.504Z,16.60
2018-10-16T16:39:14.967Z,16.40
2018-10-16T16:41:43.715Z,16.30
2018-10-16T16:44:12.232Z,16.30
2018-10-16T16:46:41.180Z,16.20
2018-10-16T16:49:09.703Z,16.10
2018-10-16T16:51:38.551Z,16.00
2018-10-16T16:54:07.028Z,16.00
2018-10-16T16:56:35.490Z,16.00
2018-10-16T16:59:04.179Z,15.90
2018-10-16T17:01:32.715Z,15.80
2018-10-16T17:04:01.350Z,15.70
2018-10-16T17:06:30.103Z,15.90
2018-10-16T17:08:58.398Z,15.50
2018-10-16T17:11:26.764Z,15.40
2018-10-16T17:13:55.332Z,15.30
2018-10-16T17:16:23.970Z,15.20
2018-10-16T17:18:52.880Z,15.10
2018-10-16T17:21:21.179Z,15.00
2018-10-16T17:23:50.355Z,14.90
2018-10-16T17:26:19.387Z,14.80
2018-10-16T17:28:47.776Z,14.80
2018-10-16T17:31:16.667Z,14.70
2018-10-16T17:33:45.028Z,14.70
2018-10-16T17:36:13.777Z,14.70
2018-10-16T17:38:42.725Z,14.70
2018-10-16T17:41:11.273Z,14.60
2018-10-16T17:43:39.891Z,14.50
2018-10-16T17:46:08.544Z,14.50
2018-10-16T17:48:37.096Z,14.40
2018-10-16T17:51:05.445Z,14.30
2018-10-16T17:53:34.207Z,14.30
2018-10-16T17:56:02.765Z,14.30
2018-10-16T17:58:31.709Z,14.20
2018-10-16T18:00:59.977Z,14.10
2018-10-16T18:03:28.280Z,14.10
2018-10-16T18:05:56.615Z,14.00
2018-10-16T18:08:24.925Z,13.90
2018-10-16T18:10:53.192Z,13.80
2018-10-16T18:13:21.739Z,13.70
2018-10-16T18:15:50.250Z,13.70
2018-10-16T18:18:18.759Z,13.70
2018-10-16T18:20:47.230Z,13.60
2018-10-16T18:23:15.797Z,13.60
2018-10-16T18:25:44.173Z,13.50
2018-10-16T18:28:12.467Z,13.50
2018-10-16T18:30:41.045Z,13.50
2018-10-16T18:33:09.847Z,13.40
2018-10-16T18:35:38.311Z,13.40
2018-10-16T18:38:06.883Z,13.40
2018-10-16T18:40:35.472Z,13.40
2018-10-16T18:43:04.468Z,13.30
2018-10-16T18:45:32.744Z,13.30
2018-10-16T18:48:01.213Z,13.20
2018-10-16T18:50:29.785Z,13.20
2018-10-16T18:52:58.055Z,13.10
2018-10-16T18:55:26.435Z,13.10
2018-10-16T18:57:54.722Z,13.00
2018-10-16T19:00:23.350Z,13.00
2018-10-16T19:02:51.894Z,13.00
2018-10-16T19:05:20.373Z,12.90
2018-10-16T19:07:48.705Z,12.90
2018-10-16T19:10:17.173Z,12.80
2018-10-16T19:12:45.497Z,12.70
2018-10-16T19:15:15.556Z,12.70
2018-10-16T19:17:45.028Z,12.70
2018-10-16T19:20:14.705Z,12.60
2018-10-16T19:22:43.699Z,12.60
2018-10-16T19:25:13.127Z,12.60
2018-10-16T19:27:42.177Z,12.60
2018-10-16T19:30:11.893Z,12.60
2018-10-16T19:32:40.259Z,12.50
2018-10-16T19:35:10.180Z,12.50
2018-10-16T19:37:38.656Z,12.40
2018-10-16T19:40:07.092Z,12.40
2018-10-16T19:42:35.383Z,12.30
2018-10-16T19:45:04.042Z,12.30
2018-10-16T19:47:32.838Z,12.30
2018-10-16T19:50:01.457Z,12.20
2018-10-16T19:52:29.753Z,12.20
2018-10-16T19:54:58.116Z,12.20
2018-10-16T19:57:26.539Z,12.10
2018-10-16T19:59:55.077Z,12.10
2018-10-16T20:02:23.524Z,12.00
2018-10-16T20:04:51.912Z,12.10
2018-10-16T20:07:20.697Z,12.00
2018-10-16T20:09:49.816Z,12.00
2018-10-16T20:12:18.645Z,11.90
2018-10-16T20:14:46.927Z,11.80
2018-10-16T20:17:15.351Z,11.80
2018-10-16T20:19:44.031Z,11.90
2018-10-16T20:22:12.625Z,11.80
2018-10-16T20:24:40.984Z,11.80
2018-10-16T20:27:09.836Z,11.80
2018-10-16T20:29:38.580Z,11.70
2018-10-16T20:32:07.115Z,11.70
2018-10-16T20:34:36.602Z,11.70
2018-10-16T20:37:05.456Z,11.70
2018-10-16T20:39:33.954Z,11.60
2018-10-16T20:42:02.296Z,11.60
2018-10-16T20:44:30.783Z,11.60
2018-10-16T20:46:59.070Z,11.50
2018-10-16T20:49:27.471Z,11.40
2018-10-16T20:51:56.030Z,11.40
2018-10-16T20:54:24.352Z,11.40
2018-10-16T20:56:52.759Z,11.40
2018-10-16T20:59:21.045Z,11.30
2018-10-16T21:01:49.976Z,11.30
2018-10-16T21:04:18.373Z,11.30
2018-10-16T21:06:47.286Z,11.20
2018-10-16T21:09:16.152Z,11.20
2018-10-16T21:11:44.539Z,11.20
2018-10-16T21:14:13.103Z,11.20
2018-10-16T21:16:41.706Z,11.10
2018-10-16T21:19:10.299Z,11.10
2018-10-16T21:21:39.040Z,11.00
2018-10-16T21:24:07.463Z,11.00
2018-10-16T21:26:36.505Z,11.00
2018-10-16T21:29:05.197Z,11.00
2018-10-16T21:31:33.951Z,11.00
2018-10-16T21:34:02.499Z,10.90
2018-10-16T21:36:30.794Z,10.90
2018-10-16T21:38:59.158Z,10.90
2018-10-16T21:41:27.723Z,10.80
2018-10-16T21:43:55.996Z,10.80
2018-10-16T21:46:24.487Z,10.80
2018-10-16T21:48:52.771Z,10.70
2018-10-16T21:51:21.452Z,10.70
2018-10-16T21:53:49.928Z,10.70
2018-10-16T21:56:18.495Z,10.60
2018-10-16T21:58:46.821Z,10.60
2018-10-16T22:01:15.758Z,10.60
2018-10-16T22:03:44.490Z,10.60
2018-10-16T22:06:12.779Z,10.60
2018-10-16T22:08:41.539Z,10.60
2018-10-16T22:11:10.107Z,10.50
2018-10-16T22:13:38.800Z,10.50
2018-10-16T22:16:07.625Z,10.40
2018-10-16T22:18:36.179Z,10.40
2018-10-16T22:21:04.571Z,10.40
2018-10-16T22:23:33.008Z,10.40
2018-10-16T22:26:01.560Z,10.40
2018-10-16T22:28:30.058Z,10.30
2018-10-16T22:30:58.799Z,10.30
2018-10-16T22:33:27.286Z,10.20
2018-10-16T22:35:55.602Z,10.20
2018-10-16T22:38:23.930Z,10.20
2018-10-16T22:40:52.244Z,10.20
2018-10-16T22:43:20.561Z,10.10
2018-10-16T22:45:49.159Z,10.10
2018-10-16T22:48:17.810Z,10.00
2018-10-16T22:50:46.247Z,10.00
2018-10-16T22:53:15.178Z,10.00
2018-10-16T22:55:43.641Z,9.90
2018-10-16T22:58:12.347Z,9.90
2018-10-16T23:00:40.887Z,9.90
2018-10-16T23:03:09.312Z,9.90
2018-10-16T23:05:37.695Z,9.90
2018-10-16T23:08:06.526Z,9.90
2018-10-16T23:10:34.809Z,9.80
2018-10-16T23:13:06.792Z,9.80
2018-10-16T23:15:35.751Z,9.80
2018-10-16T23:18:04.676Z,9.80
2018-10-16T23:20:33.468Z,9.70
2018-10-16T23:23:01.890Z,9.70
2018-10-16T23:25:30.312Z,9.70
2018-10-16T23:27:58.943Z,9.60
2018-10-16T23:30:27.543Z,9.50
2018-10-16T23:32:55.915Z,9.50
2018-10-16T23:35:25.175Z,9.50
2018-10-16T23:37:53.869Z,9.60
2018-10-16T23:40:22.298Z,9.50
2018-10-16T23:42:50.861Z,9.50
2018-10-16T23:45:19.182Z,9.50
2018-10-16T23:47:47.464Z,9.50
2018-10-16T23:50:16.391Z,9.50
2018-10-16T23:52:44.883Z,9.50
2018-10-16T23:55:13.221Z,9.50
2018-10-16T23:57:41.966Z,9.40
